Time;durP1;ratioP1;P1;durP2;ratioP2;P2;SDS_P1;SDS_P2;PMS_P1;PMS_P2;Temp;Humidity;BMP_temperature;BMP_pressure;BME280_temperature;BME280_humidity;BME280_pressure;Samples;Min_cycle;Max_cycle;Signal;HPM_P1;HPM_P2
2023/09/15 00:00:32;;;;;;;7.62;6.57;;;;;;;20.79;62.53;99482.47;4359717;32;33829;-90
2023/09/15 00:02:59;;;;;;;9.40;6.85;;;;;;;20.85;61.93;99485.84;4360349;32;34900;-91
2023/09/15 00:05:29;;;;;;;8.60;6.62;;;;;;;20.98;61.66;99485.53;4354324;32;33869;-89
2023/09/15 00:08:00;;;;;;;9.45;6.78;;;;;;;21.07;61.19;99485.31;4356244;32;34705;-90
2023/09/15 00:10:27;;;;;;;8.02;6.18;;;;;;;20.93;61.35;99484.78;4358975;32;33503;-90
2023/09/15 00:12:55;;;;;;;8.30;6.75;;;;;;;21.10;61.09;99490.50;4368916;32;34962;-89
2023/09/15 00:15:22;;;;;;;7.68;6.75;;;;;;;21.00;61.30;99484.59;4356239;32;33196;-91
2023/09/15 00:17:51;;;;;;;8.18;6.80;;;;;;;20.75;61.70;99488.72;4360485;32;33605;-91
2023/09/15 00:20:20;;;;;;;8.85;6.03;;;;;;;20.92;60.99;99489.19;4353759;32;34081;-91
2023/09/15 00:22:49;;;;;;;9.38;7.10;;;;;;;20.85;61.05;99488.47;4351303;32;34284;-90
2023/09/15 00:25:26;;;;;;;9.77;7.18;;;;;;;20.75;61.35;99497.50;4358042;32;34333;-91
2023/09/15 00:27:56;;;;;;;10.20;7.05;;;;;;;20.87;61.22;99498.97;4352439;32;33182;-91
2023/09/15 00:30:25;;;;;;;9.05;7.12;;;;;;;20.92;60.97;99506.78;4352507;32;33299;-90
2023/09/15 00:32:53;;;;;;;8.65;6.62;;;;;;;20.56;61.37;99507.59;4358913;32;33760;-91
2023/09/15 00:35:23;;;;;;;8.10;6.78;;;;;;;20.65;61.00;99511.78;4357835;32;34533;-91
2023/09/15 00:37:51;;;;;;;9.10;7.00;;;;;;;20.70;61.17;99507.28;4359178;32;34087;-91
2023/09/15 00:40:21;;;;;;;8.90;7.22;;;;;;;20.80;60.83;99508.81;4348095;32;33150;-92
2023/09/15 00:42:49;;;;;;;9.10;6.47;;;;;;;20.89;60.40;99510.34;4358212;32;33849;-92
2023/09/15 00:45:22;;;;;;;8.40;7.05;;;;;;;20.97;60.11;99515.44;4355592;32;33843;-92
2023/09/15 00:47:59;;;;;;;8.52;6.03;;;;;;;21.09;59.79;99513.34;4350753;32;33323;-92
2023/09/15 00:50:31;;;;;;;10.30;6.60;;;;;;;21.19;59.43;99515.78;4357318;32;34673;-93
2023/09/15 00:53:03;;;;;;;9.60;6.32;;;;;;;21.11;59.51;99508.06;4358823;32;34043;-92
2023/09/15 00:55:33;;;;;;;8.80;6.50;;;;;;;21.25;59.02;99515.63;4345847;32;33311;-92
2023/09/15 00:58:03;;;;;;;7.22;5.60;;;;;;;21.26;58.96;99517.38;4358440;32;33784;-91
2023/09/15 01:00:30;;;;;;;9.45;6.87;;;;;;;21.20;59.33;99513.09;4347692;32;34322;-92
2023/09/15 01:02:58;;;;;;;8.80;6.30;;;;;;;21.20;59.49;99515.75;4358116;32;33731;-92
2023/09/15 01:05:28;;;;;;;9.27;6.22;;;;;;;21.32;59.27;99515.41;4358019;32;34645;-91
2023/09/15 01:07:56;;;;;;;7.80;5.87;;;;;;;21.32;59.44;99512.78;4345434;32;33277;-91
2023/09/15 01:10:24;;;;;;;8.35;6.37;;;;;;;21.36;59.26;99511.81;4351635;32;33988;-90
2023/09/15 01:12:53;;;;;;;9.20;6.22;;;;;;;21.26;59.52;99507.69;4367037;32;34044;-92
2023/09/15 01:15:34;;;;;;;8.27;6.43;;;;;;;21.25;59.35;99513.87;4359694;32;34608;-89
2023/09/15 01:18:23;;;;;;;7.53;6.28;;;;;;;21.21;59.83;99513.97;4344889;32;32676;-91
2023/09/15 01:21:14;;;;;;;8.10;6.37;;;;;;;21.12;59.97;99515.06;4344444;33;33203;-92
2023/09/15 01:23:56;;;;;;;8.60;5.68;;;;;;;21.29;59.50;99514.63;4346131;32;33945;-91
2023/09/15 01:26:49;;;;;;;8.05;6.43;;;;;;;21.11;59.78;99506.28;4368966;32;33723;-92
2023/09/15 01:29:56;;;;;;;8.50;6.57;;;;;;;21.26;59.37;99510.31;4354603;32;34253;-92
2023/09/15 01:32:25;;;;;;;7.82;6.32;;;;;;;21.18;59.38;99517.56;4329979;33;33863;-91
2023/09/15 01:34:53;;;;;;;7.90;6.57;;;;;;;21.02;59.52;99513.53;4331247;33;34879;-91
2023/09/15 01:37:21;;;;;;;8.23;6.62;;;;;;;20.97;59.43;99510.16;4344368;33;33796;-92
2023/09/15 01:39:50;;;;;;;9.23;7.47;;;;;;;20.77;60.12;99508.88;4346582;32;33494;-90
2023/09/15 01:42:17;;;;;;;11.43;8.30;;;;;;;20.72;60.09;99509.88;4360306;32;35123;-92
2023/09/15 01:44:45;;;;;;;9.07;7.80;;;;;;;20.63;60.23;99522.34;4361182;32;34647;-90
2023/09/15 01:47:18;;;;;;;9.50;8.20;;;;;;;20.53;60.50;99517.31;4371225;32;34550;-91
2023/09/15 01:49:47;;;;;;;10.07;8.63;;;;;;;20.40;60.87;99524.59;4346646;32;33664;-93
2023/09/15 01:52:15;;;;;;;11.85;8.23;;;;;;;19.93;62.16;99519.41;4371091;32;33831;-92
2023/09/15 01:54:44;;;;;;;10.63;8.82;;;;;;;19.96;62.07;99520.25;4372796;32;34880;-92
2023/09/15 01:57:11;;;;;;;9.75;8.60;;;;;;;19.65;62.92;99521.69;4348394;32;33163;-93
2023/09/15 01:59:39;;;;;;;10.63;8.35;;;;;;;19.95;62.08;99527.28;4367109;32;33297;-92
2023/09/15 02:02:07;;;;;;;13.23;9.13;;;;;;;19.89;62.27;99530.03;4368807;32;34037;-91
2023/09/15 02:04:35;;;;;;;9.27;8.25;;;;;;;20.00;61.94;99535.06;4364096;32;34739;-92
2023/09/15 02:07:03;;;;;;;9.50;7.93;;;;;;;20.17;61.36;99535.63;4371527;32;33949;-91
2023/09/15 02:09:30;;;;;;;8.73;7.82;;;;;;;20.13;61.42;99531.31;4361259;32;34180;-92
2023/09/15 02:11:58;;;;;;;8.70;7.70;;;;;;;20.32;60.87;99534.44;4361363;32;34695;-92
2023/09/15 02:14:26;;;;;;;9.05;7.43;;;;;;;20.31;60.92;99530.94;4363871;32;34086;-90
2023/09/15 02:16:54;;;;;;;12.20;7.37;;;;;;;20.38;60.53;99535.19;4358694;32;32611;-92
2023/09/15 02:19:21;;;;;;;9.77;7.47;;;;;;;20.49;60.09;99528.78;4346344;32;33455;-90
2023/09/15 02:21:49;;;;;;;8.43;7.40;;;;;;;20.27;60.57;99529.25;4348989;32;33711;-90
2023/09/15 02:24:17;;;;;;;8.98;7.57;;;;;;;20.05;61.54;99528.84;4347714;32;35043;-91
2023/09/15 02:26:44;;;;;;;8.38;7.30;;;;;;;19.91;61.87;99526.47;4371665;32;33589;-91
2023/09/15 02:29:13;;;;;;;12.05;8.13;;;;;;;20.12;61.14;99529.59;4373723;32;33685;-92
2023/09/15 02:31:41;;;;;;;9.50;7.80;;;;;;;19.89;61.82;99527.41;4372725;32;33666;-90
2023/09/15 02:34:09;;;;;;;10.00;7.47;;;;;;;19.77;62.37;99528.47;4373233;32;34212;-92
2023/09/15 02:36:38;;;;;;;10.50;8.07;;;;;;;20.11;61.68;99533.09;4363198;32;34186;-92
2023/09/15 02:39:06;;;;;;;8.35;7.30;;;;;;;20.11;61.91;99533.94;4370650;32;34409;-92
2023/09/15 02:41:35;;;;;;;8.98;7.72;;;;;;;19.97;62.40;99524.62;4373006;32;33288;-92
2023/09/15 02:44:02;;;;;;;10.95;8.02;;;;;;;20.04;62.33;99523.56;4370745;32;34209;-91
2023/09/15 02:46:30;;;;;;;9.77;8.20;;;;;;;19.94;62.52;99528.19;4370618;32;34105;-92
2023/09/15 02:48:59;;;;;;;10.32;8.80;;;;;;;20.03;62.31;99525.34;4361617;32;33297;-93
2023/09/15 02:51:27;;;;;;;12.23;9.52;;;;;;;19.86;62.54;99516.94;4362880;32;33562;-91
2023/09/15 02:53:55;;;;;;;10.70;8.95;;;;;;;19.86;62.23;99522.19;4376549;32;34077;-93
2023/09/15 02:56:23;;;;;;;11.82;9.27;;;;;;;19.88;62.10;99517.75;4351869;32;33868;-92
2023/09/15 02:58:54;;;;;;;11.88;9.82;;;;;;;19.93;61.87;99516.78;4366200;32;33281;-91
2023/09/15 03:01:22;;;;;;;10.45;9.18;;;;;;;19.40;63.59;99523.00;4369863;32;33838;-92
2023/09/15 03:03:49;;;;;;;10.90;8.57;;;;;;;19.39;63.64;99522.13;4375454;32;34711;-92
2023/09/15 03:06:18;;;;;;;11.93;9.30;;;;;;;19.43;63.45;99529.09;4362020;32;33286;-91
2023/09/15 03:08:45;;;;;;;10.57;9.25;;;;;;;19.21;64.50;99538.22;4351305;32;33590;-92
2023/09/15 03:11:16;;;;;;;11.35;8.80;;;;;;;19.36;64.08;99540.59;4374388;32;34418;-92
2023/09/15 03:13:45;;;;;;;10.30;8.82;;;;;;;19.50;63.81;99528.97;4372938;32;34938;-92
2023/09/15 03:16:13;;;;;;;11.50;9.32;;;;;;;19.62;63.39;99523.50;4361405;32;33967;-91
2023/09/15 03:18:42;;;;;;;10.63;8.05;;;;;;;19.67;63.28;99524.31;4351877;32;33120;-90
2023/09/15 03:21:10;;;;;;;8.85;7.45;;;;;;;19.85;62.45;99523.97;4371193;32;33818;-91
2023/09/15 03:23:38;;;;;;;8.43;7.00;;;;;;;20.03;61.58;99525.34;4366696;32;34897;-92
2023/09/15 03:26:06;;;;;;;9.30;7.37;;;;;;;19.40;63.63;99523.00;4367119;32;34864;-92
2023/09/15 03:28:35;;;;;;;8.73;7.68;;;;;;;19.39;63.85;99522.13;4362088;32;34359;-93
2023/09/15 03:31:03;;;;;;;8.60;7.60;;;;;;;19.38;64.04;99520.41;4362460;32;34126;-92
2023/09/15 03:33:32;;;;;;;7.70;6.75;;;;;;;19.52;63.68;99512.28;4358445;32;33864;-91
2023/09/15 03:36:00;;;;;;;9.25;7.45;;;;;;;19.27;63.86;99530.22;4352256;32;33905;-92
2023/09/15 03:38:28;;;;;;;8.98;7.62;;;;;;;19.60;63.00;99525.28;4376062;32;33349;-91
2023/09/15 03:40:56;;;;;;;9.15;7.70;;;;;;;19.64;62.84;99527.84;4362956;32;33674;-91
2023/09/15 03:43:23;;;;;;;9.88;7.85;;;;;;;19.59;62.90;99532.31;4372667;32;35360;-91
2023/09/15 03:45:52;;;;;;;9.55;7.93;;;;;;;19.39;63.46;99537.03;4372649;32;33665;-91
2023/09/15 03:48:21;;;;;;;8.90;7.68;;;;;;;19.61;62.89;99537.53;4358860;32;33374;-91
2023/09/15 03:50:48;;;;;;;11.32;8.75;;;;;;;19.57;62.76;99535.84;4373393;32;34018;-91
2023/09/15 03:53:17;;;;;;;9.73;8.73;;;;;;;19.32;63.70;99530.13;4364767;32;34301;-92
2023/09/15 03:55:44;;;;;;;11.52;9.63;;;;;;;19.43;63.66;99533.44;4363329;32;33917;-91
2023/09/15 03:58:11;;;;;;;10.93;9.38;;;;;;;19.18;64.31;99539.13;4373420;32;34118;-91
2023/09/15 04:00:39;;;;;;;10.52;9.00;;;;;;;19.34;63.83;99533.63;4360409;32;33687;-91
2023/09/15 04:03:08;;;;;;;10.30;8.85;;;;;;;19.47;63.25;99536.91;4342506;32;32511;-91
2023/09/15 04:05:36;;;;;;;13.18;9.18;;;;;;;19.49;63.42;99541.25;4369179;32;34363;-92
2023/09/15 04:08:03;;;;;;;10.35;9.23;;;;;;;19.32;64.11;99543.28;4372907;32;34104;-91
2023/09/15 04:10:31;;;;;;;10.75;8.63;;;;;;;19.43;63.69;99546.59;4363947;32;34847;-92
2023/09/15 04:12:59;;;;;;;11.07;9.50;;;;;;;19.18;64.47;99547.03;4364324;32;34005;-90
2023/09/15 04:15:26;;;;;;;12.43;10.13;;;;;;;19.29;64.42;99546.84;4366262;32;34830;-92
2023/09/15 04:17:55;;;;;;;10.48;9.38;;;;;;;19.30;64.31;99553.84;4354669;32;33787;-91
2023/09/15 04:20:23;;;;;;;10.75;9.18;;;;;;;19.28;64.38;99550.38;4368547;32;33946;-91
2023/09/15 04:23:11;;;;;;;11.88;9.85;;;;;;;19.57;63.55;99552.50;4368074;32;34120;-91
2023/09/15 04:25:39;;;;;;;11.40;10.00;;;;;;;19.34;64.40;99560.78;4357276;32;34103;-89
2023/09/15 04:28:08;;;;;;;11.20;9.48;;;;;;;19.41;64.43;99557.16;4375320;32;33400;-91
2023/09/15 04:30:36;;;;;;;10.20;9.10;;;;;;;19.40;64.34;99550.16;4364066;32;33936;-90
2023/09/15 04:33:04;;;;;;;12.10;8.70;;;;;;;19.60;63.66;99551.59;4375185;32;34139;-91
2023/09/15 04:35:32;;;;;;;10.02;7.80;;;;;;;19.56;63.87;99550.75;4356431;32;33532;-88
2023/09/15 04:37:59;;;;;;;9.40;8.13;;;;;;;19.63;63.54;99555.06;4359311;32;33201;-92
2023/09/15 04:40:27;;;;;;;8.90;7.50;;;;;;;19.68;63.49;99560.22;4373788;32;33554;-93
2023/09/15 04:42:55;;;;;;;9.07;7.20;;;;;;;19.82;62.85;99555.59;4361881;32;33971;-92
2023/09/15 04:45:25;;;;;;;9.45;7.10;;;;;;;19.86;62.71;99557.28;4370397;32;32659;-90
2023/09/15 04:47:53;;;;;;;9.30;7.47;;;;;;;19.90;62.83;99560.72;4373594;32;32986;-90
2023/09/15 04:50:21;;;;;;;10.82;8.35;;;;;;;19.72;63.57;99556.66;4360445;32;33928;-90
2023/09/15 04:52:50;;;;;;;11.93;8.68;;;;;;;19.44;64.35;99562.38;4359273;32;35002;-91
2023/09/15 04:55:17;;;;;;;11.07;8.25;;;;;;;19.48;64.38;99560.56;4372092;32;33674;-90
2023/09/15 04:57:46;;;;;;;12.40;8.70;;;;;;;19.67;63.82;99558.50;4375595;32;33210;-89
2023/09/15 05:00:21;;;;;;;9.80;8.77;;;;;;;19.76;63.67;99568.84;4360996;32;33775;-88
2023/09/15 05:02:51;;;;;;;9.60;7.95;;;;;;;19.97;63.21;99562.34;4348844;32;33877;-89
2023/09/15 05:05:19;;;;;;;8.38;7.18;;;;;;;20.36;62.67;99560.66;4353579;32;34049;-91
2023/09/15 05:07:46;;;;;;;9.65;7.87;;;;;;;20.65;61.32;99559.22;4371764;32;33636;-90
2023/09/15 05:10:14;;;;;;;10.57;7.05;;;;;;;20.86;60.57;99557.84;4371809;32;33922;-91
2023/09/15 05:12:42;;;;;;;9.43;6.45;;;;;;;21.06;59.92;99560.00;4370556;32;34132;-90
2023/09/15 05:15:10;;;;;;;8.85;5.95;;;;;;;21.23;59.56;99551.72;4360576;32;33796;-91
2023/09/15 05:17:38;;;;;;;13.13;8.45;;;;;;;21.38;59.32;99562.78;4371606;32;31705;-90
2023/09/15 05:20:06;;;;;;;11.30;8.10;;;;;;;20.66;61.44;99558.31;4360464;32;34816;-90
2023/09/15 05:22:34;;;;;;;11.75;8.05;;;;;;;20.72;61.50;99568.72;4374035;32;35007;-91
2023/09/15 05:25:04;;;;;;;9.73;7.25;;;;;;;21.00;60.88;99568.09;4375340;32;33824;-91
2023/09/15 05:27:33;;;;;;;8.63;7.25;;;;;;;21.06;60.56;99563.53;4375561;32;32969;-91
2023/09/15 05:30:00;;;;;;;10.18;7.75;;;;;;;21.07;60.85;99559.13;4349528;32;33847;-90
2023/09/15 05:32:30;;;;;;;12.77;7.80;;;;;;;21.02;61.35;99566.25;4374927;32;35495;-89
2023/09/15 05:34:58;;;;;;;8.82;7.62;;;;;;;21.10;61.36;99565.22;4375360;32;34711;-90
2023/09/15 05:37:26;;;;;;;8.55;6.75;;;;;;;21.12;61.56;99568.66;4355180;32;32644;-90
2023/09/15 05:39:53;;;;;;;8.95;6.47;;;;;;;21.07;61.87;99570.53;4360754;32;35021;-90
2023/09/15 05:42:22;;;;;;;9.63;6.40;;;;;;;21.03;62.24;99562.75;4361902;32;34935;-90
2023/09/15 05:44:49;;;;;;;8.10;6.68;;;;;;;20.98;62.56;99569.88;4361536;32;33227;-90
2023/09/15 05:47:16;;;;;;;8.48;6.15;;;;;;;20.97;62.63;99568.16;4372944;32;32518;-90
2023/09/15 05:49:44;;;;;;;6.97;5.72;;;;;;;21.08;62.26;99571.41;4371392;32;35158;-90
2023/09/15 05:52:12;;;;;;;8.05;6.03;;;;;;;21.16;62.07;99576.50;4371696;32;34666;-88
2023/09/15 05:54:39;;;;;;;10.02;6.15;;;;;;;21.19;62.13;99574.66;4356659;32;35039;-90
2023/09/15 05:57:07;;;;;;;9.63;5.93;;;;;;;21.09;62.84;99573.13;4349637;32;34391;-89
2023/09/15 05:59:34;;;;;;;8.15;6.68;;;;;;;21.18;62.69;99578.22;4361766;32;33936;-89
2023/09/15 06:02:02;;;;;;;11.23;6.07;;;;;;;21.31;62.27;99576.13;4374764;32;34154;-89
2023/09/15 06:04:30;;;;;;;9.25;5.93;;;;;;;21.36;61.91;99572.50;4374943;32;34673;-89
2023/09/15 06:06:57;;;;;;;10.23;6.30;;;;;;;21.29;62.12;99575.28;4374429;32;34171;-88
2023/09/15 06:09:25;;;;;;;8.65;5.50;;;;;;;21.37;61.79;99574.25;4365735;32;33772;-90
2023/09/15 06:11:53;;;;;;;7.75;5.28;;;;;;;21.29;62.08;99580.56;4365217;32;34164;-90
2023/09/15 06:14:20;;;;;;;7.90;5.78;;;;;;;21.32;62.13;99586.62;4348913;32;34706;-89
2023/09/15 06:16:47;;;;;;;6.82;5.03;;;;;;;21.00;63.58;99583.91;4348865;32;34322;-88
2023/09/15 06:19:15;;;;;;;7.72;4.50;;;;;;;21.11;63.07;99587.16;4366388;32;34780;-90
2023/09/15 06:21:43;;;;;;;8.45;5.22;;;;;;;21.25;62.44;99585.06;4361416;32;34486;-90
2023/09/15 06:24:10;;;;;;;9.07;6.62;;;;;;;20.72;65.01;99589.81;4361863;32;33730;-91
2023/09/15 06:26:38;;;;;;;9.35;6.53;;;;;;;20.67;64.76;99594.28;4372631;32;34414;-89
2023/09/15 06:29:05;;;;;;;9.73;6.05;;;;;;;20.88;63.77;99599.09;4368166;32;34077;-89
2023/09/15 06:31:33;;;;;;;9.60;6.80;;;;;;;21.09;63.82;99595.09;4376387;32;34271;-88
2023/09/15 06:34:01;;;;;;;8.40;6.68;;;;;;;21.19;62.72;99590.47;4376651;32;34368;-88
2023/09/15 06:36:29;;;;;;;7.70;5.72;;;;;;;21.19;62.70;99598.38;4368993;32;33442;-89
2023/09/15 06:38:56;;;;;;;10.75;6.55;;;;;;;21.29;62.31;99596.37;4372803;32;33656;-88
2023/09/15 06:41:24;;;;;;;8.63;6.03;;;;;;;21.49;62.16;99598.59;4361498;32;35155;-88
2023/09/15 06:43:51;;;;;;;8.60;6.47;;;;;;;21.61;61.73;99595.63;4347764;32;32980;-88
2023/09/15 06:46:21;;;;;;;10.52;5.95;;;;;;;21.36;62.55;99600.62;4362375;32;32635;-88
2023/09/15 06:48:51;;;;;;;10.23;6.40;;;;;;;21.48;61.88;99600.38;4376506;32;33898;-87
2023/09/15 06:51:19;;;;;;;9.77;6.78;;;;;;;21.64;62.06;99597.34;4362484;32;33473;-89
2023/09/15 06:53:46;;;;;;;9.73;6.10;;;;;;;21.76;60.61;99595.25;4376774;32;34029;-88
2023/09/15 06:56:14;;;;;;;9.80;6.97;;;;;;;21.60;60.95;99600.03;4375913;32;32769;-89
2023/09/15 06:58:41;;;;;;;8.90;6.32;;;;;;;21.38;61.33;99602.34;4362793;32;33385;-90
2023/09/15 07:01:09;;;;;;;9.30;6.45;;;;;;;21.63;60.90;99601.75;4376395;32;35144;-88
2023/09/15 07:03:37;;;;;;;10.52;7.07;;;;;;;21.34;62.55;99595.41;4376438;32;34066;-89
2023/09/15 07:06:05;;;;;;;9.32;6.95;;;;;;;21.30;61.93;99592.88;4352251;32;34113;-88
2023/09/15 07:08:33;;;;;;;10.00;7.00;;;;;;;21.54;62.12;99607.25;4361271;32;33912;-88
2023/09/15 07:11:00;;;;;;;9.43;6.68;;;;;;;21.78;60.47;99601.34;4361408;32;34191;-89
2023/09/15 07:13:28;;;;;;;8.27;6.43;;;;;;;22.07;60.49;99594.41;4372357;32;33905;-88
2023/09/15 07:15:55;;;;;;;8.10;6.28;;;;;;;21.83;60.10;99610.00;4370003;32;33496;-89
2023/09/15 07:18:23;;;;;;;8.00;5.68;;;;;;;22.21;59.82;99597.59;4376427;32;33731;-88
2023/09/15 07:20:51;;;;;;;7.85;5.47;;;;;;;22.01;58.81;99603.38;4376333;32;34118;-89
2023/09/15 07:23:18;;;;;;;6.95;4.60;;;;;;;22.29;59.37;99592.94;4360445;32;33396;-89
2023/09/15 07:25:47;;;;;;;8.70;5.00;;;;;;;22.21;58.19;99602.00;4373904;32;33493;-88
2023/09/15 07:28:15;;;;;;;7.40;4.70;;;;;;;22.51;56.10;99608.19;4376031;32;34538;-89
2023/09/15 07:30:42;;;;;;;7.82;3.50;;;;;;;22.31;56.48;99591.16;4362388;32;34354;-90
2023/09/15 07:33:10;;;;;;;8.15;3.85;;;;;;;22.41;55.46;99596.16;4361877;32;33979;-88
2023/09/15 07:35:38;;;;;;;6.80;4.05;;;;;;;22.57;55.41;99592.16;4375961;32;33234;-89
2023/09/15 07:38:05;;;;;;;7.40;4.03;;;;;;;23.04;54.15;99592.53;4376068;32;34157;-88
2023/09/15 07:40:33;;;;;;;5.55;3.87;;;;;;;23.10;53.59;99602.91;4362188;32;34905;-89
2023/09/15 07:43:01;;;;;;;7.28;4.68;;;;;;;22.96;54.42;99598.06;4376090;32;34714;-88
2023/09/15 07:45:29;;;;;;;7.15;4.47;;;;;;;22.94;55.25;99597.22;4375921;32;33414;-89
2023/09/15 07:47:56;;;;;;;7.40;3.95;;;;;;;23.45;54.20;99590.31;4356099;32;34834;-89
2023/09/15 07:50:25;;;;;;;8.48;3.67;;;;;;;23.80;51.15;99594.47;4363229;32;33805;-88
2023/09/15 07:52:53;;;;;;;5.90;3.33;;;;;;;23.89;51.97;99594.12;4355180;32;33376;-87
2023/09/15 07:55:22;;;;;;;5.15;3.60;;;;;;;24.20;50.24;99591.25;4374437;32;33406;-85
2023/09/15 07:57:50;;;;;;;6.53;3.87;;;;;;;24.11;49.84;99588.09;4370332;32;33805;-87
2023/09/15 08:00:17;;;;;;;6.18;3.20;;;;;;;24.57;49.77;99592.59;4351268;32;32526;-86
2023/09/15 08:02:45;;;;;;;4.75;3.08;;;;;;;24.71;50.22;99589.41;4361242;32;34168;-89
2023/09/15 08:05:13;;;;;;;6.00;3.20;;;;;;;24.69;48.53;99589.47;4360941;32;33523;-89
2023/09/15 08:07:44;;;;;;;5.22;3.20;;;;;;;24.81;50.00;99589.91;4374031;32;34178;-87
2023/09/15 08:10:14;;;;;;;6.40;3.03;;;;;;;24.70;47.33;99587.66;4375817;32;34172;-90
2023/09/15 08:12:41;;;;;;;4.90;2.70;;;;;;;24.78;48.67;99593.56;4375835;32;33931;-89
2023/09/15 08:15:09;;;;;;;5.85;2.87;;;;;;;25.04;47.76;99586.34;4374987;32;34356;-89
2023/09/15 08:17:37;;;;;;;4.80;2.65;;;;;;;25.31;46.97;99580.00;4374459;32;33616;-88
2023/09/15 08:20:05;;;;;;;5.03;2.92;;;;;;;25.19;46.47;99585.78;4362291;32;34964;-88
2023/09/15 08:22:34;;;;;;;5.35;2.90;;;;;;;25.30;45.66;99583.53;4362235;32;34821;-88
2023/09/15 08:25:03;;;;;;;4.62;2.92;;;;;;;25.50;45.91;99581.87;4349777;32;32093;-88
2023/09/15 08:27:31;;;;;;;5.37;2.83;;;;;;;25.36;44.79;99585.97;4375860;32;34164;-89
2023/09/15 08:29:59;;;;;;;4.03;2.35;;;;;;;25.42;44.59;99583.06;4375921;32;34885;-88
2023/09/15 08:32:27;;;;;;;5.57;2.35;;;;;;;25.20;43.17;99575.13;4375645;32;34087;-86
2023/09/15 08:34:55;;;;;;;4.22;2.65;;;;;;;24.93;43.76;99579.72;4375888;32;33272;-86
2023/09/15 08:37:22;;;;;;;4.25;2.30;;;;;;;24.85;42.27;99580.91;4375978;32;35070;-87
2023/09/15 08:39:50;;;;;;;4.32;2.40;;;;;;;25.17;41.69;99569.06;4376153;32;34615;-88
2023/09/15 08:42:23;;;;;;;4.22;2.35;;;;;;;25.26;41.84;99576.63;4375861;32;33292;-89
2023/09/15 08:44:52;;;;;;;4.55;2.50;;;;;;;25.50;43.12;99577.44;4362120;32;33447;-89
2023/09/15 08:47:20;;;;;;;7.12;2.37;;;;;;;25.59;42.12;99574.37;4362006;32;33928;-90
2023/09/15 08:49:50;;;;;;;5.18;2.30;;;;;;;25.26;40.83;99571.34;4362186;32;34985;-89
2023/09/15 08:52:18;;;;;;;5.37;2.37;;;;;;;25.59;40.89;99568.22;4361971;32;33526;-89
2023/09/15 08:54:45;;;;;;;8.60;2.70;;;;;;;25.44;41.36;99569.72;4362119;32;33490;-88
2023/09/15 08:57:13;;;;;;;6.00;2.67;;;;;;;25.11;41.21;99564.00;4361703;32;33088;-86
2023/09/15 08:59:41;;;;;;;4.97;2.78;;;;;;;25.00;41.88;99575.00;4375603;32;33900;-88
2023/09/15 09:02:14;;;;;;;6.15;2.70;;;;;;;24.88;43.28;99571.03;4375563;32;33893;-90
2023/09/15 09:04:42;;;;;;;6.97;3.17;;;;;;;25.26;43.43;99575.78;4362474;32;33112;-91
2023/09/15 09:07:11;;;;;;;7.22;3.42;;;;;;;25.28;42.24;99573.94;4362257;32;33721;-87
2023/09/15 09:09:38;;;;;;;5.75;2.92;;;;;;;25.20;42.90;99576.91;4361905;32;34273;-89
2023/09/15 09:12:06;;;;;;;5.30;3.05;;;;;;;25.02;44.01;99574.97;4375234;32;34031;-87
2023/09/15 09:14:35;;;;;;;4.82;3.00;;;;;;;25.03;42.84;99581.97;4361845;32;33355;-88
2023/09/15 09:17:03;;;;;;;6.55;3.25;;;;;;;25.10;43.49;99580.84;4375447;32;34653;-88
2023/09/15 09:19:37;;;;;;;6.72;2.87;;;;;;;25.20;44.74;99585.72;4375476;32;33869;-88
2023/09/15 09:22:08;;;;;;;7.05;3.50;;;;;;;25.38;43.03;99583.22;4375463;32;34304;-88
2023/09/15 09:24:36;;;;;;;8.57;3.50;;;;;;;24.88;43.35;99586.09;4375356;32;33769;-87
2023/09/15 09:27:08;;;;;;;6.53;3.42;;;;;;;25.10;42.72;99581.72;4361995;32;33877;-88
2023/09/15 09:29:37;;;;;;;6.60;3.53;;;;;;;25.20;43.97;99585.72;4361956;32;34985;-89
2023/09/15 09:32:05;;;;;;;6.68;3.40;;;;;;;25.27;42.21;99573.09;4361993;32;34619;-89
2023/09/15 09:34:33;;;;;;;7.35;3.58;;;;;;;25.43;42.52;99578.62;4361630;32;33117;-88
2023/09/15 09:37:14;;;;;;;6.53;3.58;;;;;;;25.66;42.48;99580.31;4375356;32;33559;-87
2023/09/15 09:39:41;;;;;;;7.20;3.62;;;;;;;25.18;41.85;99571.66;4374984;32;34750;-88
2023/09/15 09:42:10;;;;;;;7.28;3.05;;;;;;;24.97;41.75;99575.16;4361897;32;34241;-88
2023/09/15 09:44:38;;;;;;;5.95;3.20;;;;;;;25.11;42.62;99572.81;4361738;32;33497;-87
2023/09/15 09:47:09;;;;;;;7.53;4.12;;;;;;;25.31;43.06;99572.03;4361555;32;33704;-87
2023/09/15 09:49:39;;;;;;;8.43;3.45;;;;;;;25.63;42.87;99575.97;4375031;32;33913;-87
2023/09/15 09:52:06;;;;;;;7.25;3.12;;;;;;;25.49;42.73;99573.03;4368932;32;207157;-89
2023/09/15 09:54:34;;;;;;;4.85;2.70;;;;;;;25.96;42.74;99571.03;4373981;32;33864;-90
2023/09/15 09:57:02;;;;;;;3.80;2.28;;;;;;;25.96;42.32;99570.19;4361533;32;33994;-89
2023/09/15 09:59:30;;;;;;;4.28;2.30;;;;;;;25.72;41.43;99580.91;4375073;32;34294;-90
2023/09/15 10:01:58;;;;;;;5.45;2.00;;;;;;;25.98;40.13;99570.97;4374820;32;34132;-89
2023/09/15 10:04:25;;;;;;;6.25;2.55;;;;;;;26.17;39.40;99577.19;4361511;32;32805;-87
2023/09/15 10:06:53;;;;;;;5.32;2.67;;;;;;;26.01;38.84;99570.84;4375184;32;33026;-88
2023/09/15 10:09:21;;;;;;;4.85;2.22;;;;;;;25.58;39.33;99580.63;4374734;32;34716;-88
2023/09/15 10:11:49;;;;;;;7.22;2.30;;;;;;;25.14;40.26;99574.50;4361451;32;33934;-88
2023/09/15 10:14:17;;;;;;;5.22;2.65;;;;;;;25.65;40.37;99582.09;4361643;32;33569;-88
2023/09/15 10:16:45;;;;;;;5.32;2.95;;;;;;;25.66;40.29;99575.84;4361450;32;33640;-88
2023/09/15 10:19:14;;;;;;;6.60;2.60;;;;;;;26.00;40.88;99574.44;4361269;32;34945;-88
2023/09/15 10:21:41;;;;;;;7.18;3.00;;;;;;;26.10;39.14;99574.87;4361162;32;34054;-88
2023/09/15 10:24:10;;;;;;;4.70;2.62;;;;;;;25.92;39.63;99565.94;4361333;32;34077;-89
2023/09/15 10:26:41;;;;;;;4.78;2.60;;;;;;;25.94;39.39;99564.91;4374759;32;34681;-89
2023/09/15 10:29:13;;;;;;;5.62;2.97;;;;;;;26.04;41.40;99575.16;4374458;32;33868;-90
2023/09/15 10:31:45;;;;;;;4.05;2.40;;;;;;;25.92;40.38;99561.47;4361207;32;34267;-90
2023/09/15 10:34:14;;;;;;;4.85;2.62;;;;;;;26.26;38.81;99564.44;4374659;32;33582;-89
2023/09/15 10:36:43;;;;;;;5.90;2.40;;;;;;;26.10;40.67;99562.47;4361258;32;33222;-90
2023/09/15 10:39:13;;;;;;;3.60;2.05;;;;;;;26.09;39.70;99557.22;4360789;32;33269;-89
2023/09/15 10:41:41;;;;;;;4.00;2.30;;;;;;;26.04;39.06;99551.25;4360908;32;33759;-88
2023/09/15 10:44:08;;;;;;;3.87;1.90;;;;;;;26.05;39.19;99553.81;4361261;32;33121;-88
2023/09/15 10:46:38;;;;;;;4.35;1.92;;;;;;;25.99;38.86;99556.78;4360939;32;33818;-87
2023/09/15 10:49:17;;;;;;;3.25;1.85;;;;;;;26.23;38.94;99554.78;4361008;32;34044;-88
2023/09/15 10:51:58;;;;;;;5.40;2.42;;;;;;;26.06;38.92;99558.19;4348238;32;33294;-89
2023/09/15 10:54:35;;;;;;;3.45;2.00;;;;;;;26.00;39.44;99561.16;4360681;32;33207;-89
2023/09/15 10:57:03;;;;;;;5.50;2.58;;;;;;;26.31;41.15;99551.78;4361190;32;34405;-89
2023/09/15 10:59:31;;;;;;;4.95;2.60;;;;;;;26.33;39.16;99560.53;4360894;32;34047;-88
2023/09/15 11:01:58;;;;;;;5.80;2.72;;;;;;;26.44;38.17;99555.59;4374355;32;33742;-88
2023/09/15 11:04:28;;;;;;;6.43;3.40;;;;;;;26.18;38.97;99554.16;4360601;32;33367;-90
2023/09/15 11:06:56;;;;;;;5.37;2.62;;;;;;;26.03;39.50;99558.34;4361927;32;33755;-88
2023/09/15 11:09:25;;;;;;;5.32;2.83;;;;;;;26.17;40.74;99558.56;4362840;32;33932;-90
2023/09/15 11:11:53;;;;;;;4.07;2.78;;;;;;;26.32;39.47;99548.19;4376441;32;34359;-87
2023/09/15 11:14:22;;;;;;;7.32;2.72;;;;;;;26.41;38.67;99553.09;4376324;32;33105;-88
2023/09/15 11:16:51;;;;;;;5.40;3.00;;;;;;;26.19;39.27;99548.75;4376221;32;34060;-90
2023/09/15 11:19:22;;;;;;;5.57;2.78;;;;;;;26.30;41.25;99556.25;4362715;32;33889;-88
2023/09/15 11:21:50;;;;;;;6.65;2.95;;;;;;;26.54;39.79;99548.97;4362392;32;33854;-88
2023/09/15 11:24:18;;;;;;;7.28;3.10;;;;;;;26.59;39.40;99546.06;4362783;32;33509;-90
2023/09/15 11:26:50;;;;;;;6.43;2.62;;;;;;;26.72;41.50;99554.38;4362787;32;34880;-88
2023/09/15 11:29:30;;;;;;;9.48;2.85;;;;;;;27.00;39.52;99546.75;4349795;32;32803;-87
2023/09/15 11:31:58;;;;;;;5.55;2.40;;;;;;;26.95;38.59;99542.63;4376145;32;33751;-88
2023/09/15 11:34:26;;;;;;;5.68;2.37;;;;;;;26.90;39.12;99545.50;4362371;32;34247;-90
2023/09/15 11:36:59;;;;;;;6.40;2.50;;;;;;;27.04;38.42;99540.34;4362424;32;33717;-89
2023/09/15 11:39:28;;;;;;;6.72;2.72;;;;;;;27.05;38.87;99539.44;4362303;32;34905;-90